This is the latest recevied weather packets stored in our database for station/object OE3TEC-15. If no packets are shown the sender has not sent any weather packets the latest 10 day(s).
| Time | Temp. | Humidity | Pressure | Rain* | Wind** | Luminosity | Snow |
|---|---|---|---|---|---|---|---|
| 1777210374 | 16.11° C | 29% | 1023 hPa | 0 mm | - | 476 W/m² | - |
| 1777209767 | 16.67° C | 28% | 1023.2 hPa | 0 mm | - | 497 W/m² | - |
| 1777209160 | 16.11° C | 30% | 1023.4 hPa | 0 mm | - | 516 W/m² | - |
| 1777208553 | 16.67° C | 29% | 1023.6 hPa | 0 mm | - | 534 W/m² | - |
| 1777207946 | 16.67° C | 28% | 1023.6 hPa | 0 mm | - | 549 W/m² | - |
| 1777207338 | 16.67° C | 31% | 1023.3 hPa | 0 mm | - | 562 W/m² | - |
| 1777206730 | 16.67° C | 29% | 1023.7 hPa | 0 mm | - | 579 W/m² | - |
| 1777206124 | 15.56° C | 30% | 1023.6 hPa | 0 mm | - | 591 W/m² | - |
| 1777205517 | 16.67° C | 28% | 1023.6 hPa | 0 mm | - | 604 W/m² | - |
| 1777204909 | 16.11° C | 29% | 1023.8 hPa | 0 mm | - | 614 W/m² | - |
| 1777204302 | 16.11° C | 31% | 1023.7 hPa | 0 mm | - | 623 W/m² | - |
| 1777203695 | 15.56° C | 32% | 1023.9 hPa | 0 mm | - | 637 W/m² | - |
| 1777203088 | 15.56° C | 32% | 1023.9 hPa | 0 mm | - | 641 W/m² | - |
| 1777202480 | 16.11° C | 29% | 1024 hPa | 0 mm | - | 594 W/m² | - |
| 1777201873 | 15.56° C | 33% | 1023.9 hPa | 0 mm | - | 653 W/m² | - |
| 1777201266 | 15.56° C | 32% | 1023.7 hPa | 0 mm | - | 660 W/m² | - |
| 1777200658 | 15.56° C | 32% | 1023.9 hPa | 0 mm | - | 608 W/m² | - |
| 1777200051 | 15° C | 35% | 1024.2 hPa | 0 mm | - | 646 W/m² | - |
| 1777199445 | 15° C | 34% | 1023.9 hPa | 0 mm | - | 648 W/m² | - |
| 1777198838 | 14.44° C | 35% | 1024.1 hPa | 0 mm | - | 629 W/m² | - |
| 1777198230 | 15° C | 35% | 1024.2 hPa | 0 mm | - | 650 W/m² | - |
| 1777197623 | 14.44° C | 33% | 1024.1 hPa | 0 mm | - | 650 W/m² | - |
| 1777197016 | 13.89° C | 34% | 1024.1 hPa | 0 mm | - | 628 W/m² | - |
| 1777196408 | 13.89° C | 34% | 1024 hPa | 0 mm | - | 634 W/m² | - |
| 1777195801 | 13.89° C | 35% | 1024 hPa | 0 mm | - | 628 W/m² | - |
* Rain latest hour (hover to see other rain measurements)
** Current wind speed in m/s (hover to see current wind gust speed)